Terminal Aerodrome Forecast
Issued by NWS

Home | Current Version | Previous Version | Text Only | Print | Product List | Glossary On
Versions: 1 2 3 4 5 6 7 8 9 10 11 12 13 14 15 16 17 18 19 20
000
FTUS41 KBTV 250531
TAFMSS
TAF
KMSS 250531Z 2506/2606 24007KT P6SM FEW250
     FM251400 22007KT P6SM BKN025
     FM251900 22010KT 6SM -SHRA BR OVC030
     FM252200 23009KT P6SM OVC020=

USA.gov is the U.S. government's official web portal to all federal, state and local government web resources and services.